Ma 2014. április 21., hétfő, Konrád és Zelmira napja van.
cheap cialis
 Fórum
Welcome Guest   [Register]  [Login]
  Vári Gyula fórum
Forums Topics Posts Last Post
A repülésről
0 0
 Board Statistics
Total Categories: 1 Total Forums: 1 Total Threads: 0 Total Posts: 0
Total Registered Users: 26 Latest Members: radjubarak  everxiao  Reaper  Szilágyi Éva  zolcat  

Powered by ccBoard

Események

Last month April 2014 Next month
M T W T F S S
week 14 1 2 3 4 5 6
week 15 7 8 9 10 11 12 13
week 16 14 15 16 17 18 19 20
week 17 21 22 23 24 25 26 27
week 18 28 29 30

Szavazás

Szívesen tagja lenne egy olyan baráti körnek, amely havi rendszerességgel programokat kínál a repülés iránt érdeklődőknek?

Igen - 100%
Nem - 0%

Total votes: 3
The voting for this poll has ended

Következik

Látogatói statisztika



54.6%Hungary Hungary
20.1%United States United States
2.8%Brazil Brazil
2.5%Russian Federation Russian Federation
2.2%Romania Romania
2.2%Germany Germany
2.2%Italy Italy
1.9%Ukraine Ukraine
1.2%Kuwait Kuwait
0.9%Austria Austria

Ma: 2
Tegnap: 8
Múlt héten: 33
Ebben a hónapban: 100
Múlt hónapban: 168
Összesen: 417


Arcképcsarnok

WindFinder


forrás:windfinder.com

Elérhetőségeink

 
        
                           
 
Telefon:  +3620 777-9000
 
Email:        varigyula@varigyula.hu 
            
            
        
 

Aviation WX

[source: ADDS]
METAR
TAF LHKE 201945Z 2021/2106 VRB02MPS CAVOK PROB30 TEMPO 2021/2024 8000 SHRA BKN030 BKN080 TAF
TAF LHKE 201945Z 2021/2106 VRB02MPS CAVOK PROB30 TEMPO 2021/2024 8000 SHRA BKN030 BKN080 =